Terminal Aerodrome Forecast
Issued by NWS Sterling, VA

Home | Current Version | Previous Version | Text Only | Print | Product List | Glossary On
Versions: 1 2 3 4 5 6 7 8 9 10 11 12 13
169
FTUS41 KLWX 221125
TAFCHO
TAF
KCHO 221125Z 2212/2312 00000KT P6SM BKN110
     FM221600 21007KT P6SM FEW050
     FM221900 21011G17KT P6SM SCT050
     FM230100 21007KT P6SM OVC050
     FM230800 VRB03KT P6SM BKN050=

USA.gov is the U.S. government's official web portal to all federal, state and local government web resources and services.